Time;durP1;ratioP1;P1;durP2;ratioP2;P2;SDS_P1;SDS_P2;PMS_P1;PMS_P2;Temp;Humidity;BMP_temperature;BMP_pressure;BME280_temperature;BME280_humidity;BME280_pressure;Samples;Min_cycle;Max_cycle;Signal;HPM_P1;HPM_P2
2021/05/26 00:00:52;;;;;;;8.73;4.60;;;10.10;99.90;;;;;;10416164;28;20042;-59
2021/05/26 00:05:54;;;;;;;7.82;3.90;;;10.00;99.90;;;;;;10415870;28;20473;-59
2021/05/26 00:10:58;;;;;;;7.32;3.17;;;9.70;99.90;;;;;;10415568;28;20048;-59
2021/05/26 00:16:00;;;;;;;5.75;2.25;;;9.60;99.90;;;;;;10415266;28;20049;-60
2021/05/26 00:21:05;;;;;;;7.38;2.60;;;9.60;99.90;;;;;;10414264;28;20042;-58
2021/05/26 00:26:08;;;;;;;6.50;2.60;;;9.60;99.90;;;;;;10420823;28;20055;-58
2021/05/26 00:31:11;;;;;;;5.93;2.13;;;9.60;99.90;;;;;;10423828;28;20045;-59
2021/05/26 00:36:13;;;;;;;3.08;1.80;;;9.30;99.90;;;;;;10423610;28;20052;-60
2021/05/26 00:41:15;;;;;;;3.20;1.52;;;9.50;99.90;;;;;;10423007;28;20474;-58
2021/05/26 00:46:17;;;;;;;2.45;1.67;;;9.30;99.90;;;;;;10422888;28;20049;-58
2021/05/26 00:51:19;;;;;;;6.07;1.77;;;9.20;99.90;;;;;;10423145;28;20052;-58
2021/05/26 00:56:21;;;;;;;4.95;2.47;;;9.20;99.90;;;;;;10422325;28;20135;-58
2021/05/26 01:01:23;;;;;;;6.88;2.35;;;9.20;99.90;;;;;;10422246;28;20449;-58
2021/05/26 01:06:25;;;;;;;4.45;2.38;;;9.10;99.90;;;;;;10422308;28;20045;-59
2021/05/26 01:11:27;;;;;;;4.05;2.55;;;9.20;99.90;;;;;;10422258;28;20049;-58
2021/05/26 01:16:29;;;;;;;4.35;2.47;;;9.20;99.90;;;;;;10421706;28;20041;-58
2021/05/26 01:21:31;;;;;;;3.63;2.38;;;9.10;99.90;;;;;;10421566;28;20052;-59
2021/05/26 01:26:33;;;;;;;3.22;2.30;;;9.10;99.90;;;;;;10420968;28;20045;-59
2021/05/26 01:31:35;;;;;;;3.97;2.78;;;9.10;99.90;;;;;;10421197;28;20056;-59
2021/05/26 01:36:41;;;;;;;3.25;2.38;;;9.00;99.90;;;;;;10420533;28;20042;-58
2021/05/26 01:41:44;;;;;;;4.55;3.25;;;9.00;99.90;;;;;;10420725;28;20494;-59
2021/05/26 01:46:46;;;;;;;3.63;3.20;;;9.20;99.90;;;;;;10419577;28;20477;-59
2021/05/26 01:51:48;;;;;;;5.78;2.63;;;9.10;99.90;;;;;;10418059;28;20045;-59
2021/05/26 01:56:50;;;;;;;4.72;2.65;;;9.30;99.90;;;;;;10417760;28;20042;-58
2021/05/26 02:01:52;;;;;;;7.43;3.53;;;9.40;99.90;;;;;;10417931;28;20045;-59
2021/05/26 02:07:07;;;;;;;3.40;2.65;;;9.40;99.90;;;;;;10417714;28;20041;-59
2021/05/26 02:12:22;;;;;;;5.82;3.83;;;9.50;99.90;;;;;;10418657;28;20043;-59
2021/05/26 02:17:24;;;;;;;8.00;4.40;;;9.40;99.90;;;;;;10417187;28;20038;-59
2021/05/26 02:22:27;;;;;;;4.75;4.25;;;9.50;99.90;;;;;;10417792;28;20041;-58
2021/05/26 02:27:29;;;;;;;17.23;7.13;;;9.40;99.90;;;;;;10416883;28;20045;-59
2021/05/26 02:32:31;;;;;;;10.18;7.75;;;9.50;99.90;;;;;;10417830;28;20048;-59
2021/05/26 02:37:35;;;;;;;5.00;4.25;;;9.50;99.90;;;;;;10416859;28;20052;-59
2021/05/26 02:42:37;;;;;;;12.13;7.43;;;9.40;99.90;;;;;;10416455;28;20049;-59
2021/05/26 02:47:40;;;;;;;11.60;8.95;;;9.50;99.90;;;;;;10377561;28;1115743;-59
2021/05/26 02:52:43;;;;;;;19.30;9.43;;;9.50;99.90;;;;;;10417998;28;20389;-59
2021/05/26 02:57:46;;;;;;;15.88;9.13;;;9.50;99.90;;;;;;10416658;28;20053;-58
2021/05/26 03:02:48;;;;;;;28.40;15.57;;;9.50;99.90;;;;;;10417833;28;20046;-58
2021/05/26 03:07:50;;;;;;;20.40;10.43;;;9.60;99.90;;;;;;10417160;28;20393;-59
2021/05/26 03:12:52;;;;;;;23.88;12.85;;;9.60;99.90;;;;;;10417102;28;20061;-59
2021/05/26 03:17:53;;;;;;;19.33;10.93;;;9.60;99.90;;;;;;10416856;28;20473;-58
2021/05/26 03:22:55;;;;;;;17.98;12.15;;;9.60;99.90;;;;;;10417799;28;20045;-59
2021/05/26 03:27:57;;;;;;;29.05;15.20;;;9.70;99.90;;;;;;10416569;28;20059;-59
2021/05/26 03:33:02;;;;;;;20.83;13.32;;;9.70;99.90;;;;;;10416388;28;20481;-59
2021/05/26 03:38:04;;;;;;;18.33;10.23;;;9.70;99.90;;;;;;10415188;28;20050;-58
2021/05/26 03:43:07;;;;;;;19.70;11.88;;;9.70;99.90;;;;;;10416330;28;20052;-59
2021/05/26 03:48:10;;;;;;;19.20;10.15;;;9.70;99.90;;;;;;10415655;28;20049;-59
2021/05/26 03:53:12;;;;;;;25.02;13.38;;;9.70;99.90;;;;;;10415780;28;20140;-59
2021/05/26 03:58:15;;;;;;;33.10;13.70;;;9.80;99.90;;;;;;10416630;28;20037;-59
2021/05/26 04:03:17;;;;;;;22.60;10.63;;;9.60;99.90;;;;;;10415234;28;20041;-60
2021/05/26 04:08:19;;;;;;;22.08;10.30;;;9.70;99.90;;;;;;10415626;28;20504;-59
2021/05/26 04:13:21;;;;;;;12.45;5.30;;;9.70;99.90;;;;;;10415280;28;20128;-60
2021/05/26 04:18:23;;;;;;;24.27;7.38;;;9.80;99.90;;;;;;10415338;28;20358;-60
2021/05/26 04:23:25;;;;;;;13.60;5.82;;;9.70;99.90;;;;;;10414135;28;20056;-60
2021/05/26 04:28:27;;;;;;;19.10;6.32;;;9.70;99.90;;;;;;10415068;28;20045;-59
2021/05/26 04:33:29;;;;;;;19.73;8.32;;;9.70;99.90;;;;;;10414726;28;20490;-60
2021/05/26 04:38:31;;;;;;;13.90;5.72;;;9.60;99.90;;;;;;10415448;28;20047;-59
2021/05/26 04:43:34;;;;;;;17.30;6.75;;;9.60;99.90;;;;;;10414731;28;20068;-58
2021/05/26 04:48:35;;;;;;;8.88;4.30;;;9.80;99.90;;;;;;10414963;28;20045;-59
2021/05/26 04:53:37;;;;;;;17.33;6.03;;;9.70;99.90;;;;;;10414540;28;20045;-59
2021/05/26 04:58:40;;;;;;;15.20;6.55;;;9.60;99.90;;;;;;10415028;28;20049;-59
2021/05/26 05:03:42;;;;;;;13.48;5.97;;;9.60;99.90;;;;;;10414338;28;20051;-60
2021/05/26 05:08:44;;;;;;;22.25;6.72;;;9.60;99.90;;;;;;10415009;28;20052;-59
2021/05/26 05:13:47;;;;;;;13.05;5.50;;;9.60;99.90;;;;;;10421720;28;20048;-59
2021/05/26 05:18:49;;;;;;;11.18;5.45;;;9.60;99.90;;;;;;10421990;28;20493;-58
2021/05/26 05:23:51;;;;;;;15.00;7.03;;;9.60;99.90;;;;;;10422056;28;20063;-59
2021/05/26 05:28:53;;;;;;;14.23;6.43;;;9.60;99.90;;;;;;10421422;28;20042;-59
2021/05/26 05:33:55;;;;;;;14.73;6.53;;;9.60;99.90;;;;;;10421261;28;20041;-59
2021/05/26 05:38:57;;;;;;;15.50;6.75;;;9.60;99.90;;;;;;10421097;28;20037;-59
2021/05/26 05:43:59;;;;;;;13.70;7.40;;;9.60;99.90;;;;;;10420724;28;20053;-59
2021/05/26 05:49:01;;;;;;;22.38;9.32;;;9.70;99.90;;;;;;10419404;28;20060;-59
2021/05/26 05:54:03;;;;;;;13.65;8.25;;;9.80;99.90;;;;;;10420043;28;20477;-60
2021/05/26 05:59:05;;;;;;;15.40;8.38;;;9.80;99.90;;;;;;10420685;28;20042;-59
2021/05/26 06:04:07;;;;;;;17.70;8.23;;;9.80;99.90;;;;;;10418740;28;20045;-60
2021/05/26 06:09:09;;;;;;;22.75;9.70;;;9.80;99.90;;;;;;10420302;28;20042;-59
2021/05/26 06:14:11;;;;;;;23.38;10.00;;;9.90;99.90;;;;;;10419428;28;20045;-59
2021/05/26 06:19:14;;;;;;;14.70;9.52;;;10.00;99.90;;;;;;10419606;28;20043;-60
2021/05/26 06:24:15;;;;;;;17.40;9.50;;;10.00;99.90;;;;;;10417341;28;20059;-59
2021/05/26 06:29:17;;;;;;;14.25;8.63;;;10.10;99.90;;;;;;10419038;28;20051;-59
2021/05/26 06:34:19;;;;;;;13.95;9.27;;;10.20;99.90;;;;;;10418263;28;20129;-60
2021/05/26 06:39:21;;;;;;;20.63;9.35;;;10.20;99.90;;;;;;10418466;28;20045;-60
2021/05/26 06:44:23;;;;;;;15.52;10.05;;;10.20;99.90;;;;;;10418137;28;20053;-60
2021/05/26 06:49:25;;;;;;;14.98;9.75;;;10.40;99.90;;;;;;10418445;28;20091;-59
2021/05/26 06:54:27;;;;;;;16.15;10.13;;;10.40;99.90;;;;;;10417780;28;20042;-60
2021/05/26 06:59:29;;;;;;;15.68;11.15;;;10.50;99.90;;;;;;10418239;28;20045;-59
2021/05/26 07:04:31;;;;;;;18.65;10.60;;;10.50;99.90;;;;;;10417240;28;20052;-60
2021/05/26 07:09:33;;;;;;;12.10;8.35;;;10.60;99.90;;;;;;10417427;28;20041;-59
2021/05/26 07:14:35;;;;;;;9.10;8.10;;;11.00;99.90;;;;;;10417285;28;20052;-59
2021/05/26 07:19:37;;;;;;;12.43;9.15;;;11.20;99.90;;;;;;10415835;28;20049;-60
2021/05/26 07:24:39;;;;;;;9.88;8.30;;;11.10;99.90;;;;;;10417429;28;20068;-59
2021/05/26 07:29:41;;;;;;;12.10;9.40;;;11.20;99.90;;;;;;10416730;28;20047;-59
2021/05/26 07:34:43;;;;;;;14.35;8.80;;;11.20;99.90;;;;;;10416417;28;20045;-60
2021/05/26 07:39:45;;;;;;;12.65;9.70;;;11.30;99.90;;;;;;10416596;28;20047;-60
2021/05/26 07:44:47;;;;;;;13.60;10.02;;;11.20;99.90;;;;;;10416000;28;20489;-59
2021/05/26 07:49:48;;;;;;;11.95;10.07;;;11.40;99.90;;;;;;10415932;28;20489;-59
2021/05/26 07:54:51;;;;;;;12.20;9.60;;;11.50;99.90;;;;;;10415673;28;20056;-59
2021/05/26 07:59:53;;;;;;;15.07;10.63;;;11.50;99.90;;;;;;10414450;28;20041;-59
2021/05/26 08:04:55;;;;;;;12.02;10.27;;;11.60;99.90;;;;;;10415803;28;20059;-59
2021/05/26 08:09:57;;;;;;;15.57;10.88;;;11.80;99.90;;;;;;10415149;28;20041;-59
2021/05/26 08:14:59;;;;;;;14.65;10.77;;;11.80;99.90;;;;;;10415404;28;20052;-59
2021/05/26 08:20:05;;;;;;;17.90;10.30;;;11.70;99.90;;;;;;10415357;28;20060;-59
2021/05/26 08:25:08;;;;;;;13.38;9.02;;;11.80;99.90;;;;;;10415677;28;20045;-59
2021/05/26 08:30:10;;;;;;;15.73;11.25;;;11.80;99.90;;;;;;10415163;28;20037;-60
2021/05/26 08:35:12;;;;;;;14.27;9.80;;;11.90;99.90;;;;;;10414693;28;20508;-58
2021/05/26 08:40:15;;;;;;;15.73;10.63;;;12.00;99.90;;;;;;10414969;28;20041;-60
2021/05/26 08:45:17;;;;;;;13.00;9.98;;;12.30;99.90;;;;;;10416833;28;20053;-60
2021/05/26 08:50:20;;;;;;;16.33;9.40;;;12.50;99.90;;;;;;10422663;28;20041;-60
2021/05/26 08:55:24;;;;;;;11.88;9.88;;;12.40;99.90;;;;;;10421378;28;20056;-59
2021/05/26 09:00:27;;;;;;;13.23;10.20;;;12.50;99.90;;;;;;10422896;28;20129;-60
2021/05/26 09:05:29;;;;;;;11.25;10.13;;;12.50;99.90;;;;;;10421018;28;20049;-59
2021/05/26 09:10:31;;;;;;;15.70;10.88;;;12.60;99.90;;;;;;10422422;28;20385;-59
2021/05/26 09:15:39;;;;;;;13.25;10.68;;;12.90;99.90;;;;;;10421548;28;20045;-60
2021/05/26 09:20:45;;;;;;;11.80;9.32;;;12.90;99.90;;;;;;10421528;28;20389;-59
2021/05/26 09:25:48;;;;;;;11.98;9.20;;;13.70;99.90;;;;;;10421965;28;20045;-60
2021/05/26 09:31:04;;;;;;;10.18;8.90;;;13.70;99.90;;;;;;10421283;28;20072;-60
2021/05/26 09:36:22;;;;;;;9.27;7.72;;;13.70;99.90;;;;;;10421030;28;20088;-59
2021/05/26 09:41:31;;;;;;;12.80;8.50;;;13.60;99.90;;;;;;10420949;28;20041;-59
2021/05/26 09:46:39;;;;;;;10.68;7.75;;;13.60;99.90;;;;;;10420626;28;20045;-59
2021/05/26 09:51:50;;;;;;;7.57;6.30;;;14.10;99.90;;;;;;10420586;28;20124;-60
2021/05/26 09:56:53;;;;;;;;;;;14.50;99.90;;;;;;10420153;28;20041;-60
2021/05/26 10:01:55;;;;;;;16.83;7.43;;;14.10;99.90;;;;;;10420547;28;19917;-60
2021/05/26 10:07:05;;;;;;;8.05;6.82;;;14.30;99.90;;;;;;10419836;28;20041;-61
2021/05/26 10:12:09;;;;;;;6.97;5.97;;;14.30;99.90;;;;;;10420491;28;20042;-60
2021/05/26 10:17:19;;;;;;;7.45;5.60;;;14.60;99.90;;;;;;10419270;28;20045;-59
2021/05/26 10:22:21;;;;;;;12.63;7.50;;;14.50;99.90;;;;;;10418419;28;20045;-60
2021/05/26 10:27:39;;;;;;;9.02;6.72;;;14.10;99.90;;;;;;10417916;28;20465;-60
2021/05/26 10:33:04;;;;;;;12.10;7.97;;;14.60;99.90;;;;;;10418276;28;20049;-61
2021/05/26 10:38:08;;;;;;;12.05;8.52;;;14.90;99.90;;;;;;10418487;28;20466;-59
2021/05/26 10:43:16;;;;;;;8.10;6.35;;;14.90;99.90;;;;;;10418553;28;20045;-60
2021/05/26 10:48:43;;;;;;;7.78;6.68;;;15.70;99.90;;;;;;10419018;28;20047;-59
2021/05/26 10:53:45;;;;;;;8.02;6.43;;;15.40;99.90;;;;;;10417171;28;20116;-59
2021/05/26 10:58:47;;;;;;;7.50;5.72;;;15.50;99.90;;;;;;10418234;28;20041;-60
2021/05/26 11:03:49;;;;;;;4.78;2.92;;;15.30;99.90;;;;;;10417776;28;20037;-60
2021/05/26 11:08:53;;;;;;;4.78;2.42;;;16.10;99.90;;;;;;10415822;28;20050;-59
2021/05/26 11:14:11;;;;;;;2.00;1.67;;;15.60;99.90;;;;;;10417175;28;20393;-59
2021/05/26 11:19:25;;;;;;;4.70;1.70;;;15.10;99.90;;;;;;10417044;28;20547;-59
2021/05/26 11:24:32;;;;;;;3.88;2.28;;;15.00;99.90;;;;;;10417331;28;20052;-60
2021/05/26 11:29:38;;;;;;;4.70;2.63;;;14.80;99.90;;;;;;10417393;28;20041;-60
2021/05/26 11:34:45;;;;;;;6.70;3.28;;;14.30;99.90;;;;;;10416900;28;20128;-60
2021/05/26 11:39:47;;;;;;;3.92;3.55;;;14.00;99.90;;;;;;10416917;28;20037;-60
2021/05/26 11:45:05;;;;;;;4.80;2.38;;;13.70;99.90;;;;;;10415997;28;20509;-59
2021/05/26 11:50:13;;;;;;;2.55;1.42;;;13.60;99.90;;;;;;10416324;28;20056;-59
2021/05/26 11:55:21;;;;;;;1.63;1.52;;;13.30;99.90;;;;;;10416135;28;20046;-59
2021/05/26 12:00:28;;;;;;;2.10;1.75;;;13.40;99.90;;;;;;10416264;28;20152;-59
2021/05/26 12:05:51;;;;;;;3.33;1.83;;;13.70;99.90;;;;;;10415496;28;20402;-59
2021/05/26 12:11:01;;;;;;;4.85;1.95;;;14.00;99.90;;;;;;10415883;28;20144;-59
2021/05/26 12:16:06;;;;;;;2.45;1.75;;;14.10;99.90;;;;;;10415881;28;20107;-59
2021/05/26 12:21:08;;;;;;;5.22;1.95;;;14.30;99.90;;;;;;10419678;28;20052;-59
2021/05/26 12:26:36;;;;;;;6.97;2.95;;;13.90;99.90;;;;;;10423575;28;20481;-59
2021/05/26 12:31:41;;;;;;;5.65;2.75;;;13.60;99.90;;;;;;10423887;28;20069;-59
2021/05/26 12:37:04;;;;;;;5.88;2.67;;;13.30;99.90;;;;;;10423398;28;20049;-59
2021/05/26 12:42:06;;;;;;;5.57;3.45;;;13.40;99.90;;;;;;10424321;28;20041;-59
2021/05/26 12:47:15;;;;;;;11.35;3.75;;;13.20;99.90;;;;;;10422907;28;20060;-59
2021/05/26 12:52:44;;;;;;;5.03;3.58;;;13.10;99.90;;;;;;10423051;28;20124;-58
2021/05/26 12:57:46;;;;;;;4.63;3.30;;;13.70;99.90;;;;;;10420647;28;20478;-58
2021/05/26 13:02:49;;;;;;;6.72;4.25;;;13.50;99.90;;;;;;10422856;28;20049;-59
2021/05/26 13:07:51;;;;;;;7.88;4.63;;;13.30;99.90;;;;;;10422088;28;20049;-59
2021/05/26 13:13:30;;;;;;;6.75;5.00;;;13.00;99.90;;;;;;10421931;28;20556;-59
2021/05/26 13:18:32;;;;;;;5.82;4.78;;;12.70;99.90;;;;;;10421958;28;20052;-58
2021/05/26 13:23:34;;;;;;;6.10;4.72;;;13.20;99.90;;;;;;10421040;28;20052;-59
2021/05/26 13:28:39;;;;;;;5.22;4.72;;;13.20;99.90;;;;;;10421580;28;20051;-59
2021/05/26 13:33:41;;;;;;;7.88;4.50;;;13.60;99.90;;;;;;10420349;28;20588;-59
2021/05/26 13:38:43;;;;;;;5.35;3.30;;;13.90;99.90;;;;;;10421204;28;20049;-59
2021/05/26 13:43:45;;;;;;;2.97;2.05;;;13.80;99.90;;;;;;10420507;28;20484;-59
2021/05/26 13:48:48;;;;;;;3.03;1.67;;;13.60;99.90;;;;;;10420907;28;20053;-59
2021/05/26 13:53:50;;;;;;;4.95;1.80;;;13.70;99.90;;;;;;10420245;28;20067;-61
2021/05/26 13:58:52;;;;;;;3.15;1.50;;;13.80;99.90;;;;;;10421221;28;20046;-60
2021/05/26 14:03:54;;;;;;;3.08;1.17;;;14.20;99.90;;;;;;10420132;28;20052;-60
2021/05/26 14:08:56;;;;;;;4.07;1.45;;;15.00;99.90;;;;;;10419852;28;20500;-60
2021/05/26 14:13:58;;;;;;;3.20;1.52;;;15.30;99.90;;;;;;10419482;28;20041;-60
2021/05/26 14:19:00;;;;;;;3.08;1.63;;;15.30;99.90;;;;;;10418191;28;20049;-60
2021/05/26 14:24:02;;;;;;;1.38;1.23;;;15.40;99.90;;;;;;10417913;28;20363;-60
2021/05/26 14:29:05;;;;;;;4.28;2.00;;;15.20;99.90;;;;;;10419177;28;20060;-61
2021/05/26 14:34:07;;;;;;;5.72;2.35;;;14.70;99.90;;;;;;10417836;28;20048;-60
2021/05/26 14:39:14;;;;;;;3.63;2.08;;;14.70;99.90;;;;;;10418566;28;20045;-62
2021/05/26 14:44:16;;;;;;;5.65;2.47;;;14.70;99.90;;;;;;10418386;28;20132;-62
2021/05/26 14:49:18;;;;;;;2.80;2.20;;;15.20;99.90;;;;;;10418440;28;20385;-60
2021/05/26 14:54:20;;;;;;;5.38;2.15;;;15.30;99.90;;;;;;10417099;28;20038;-59
2021/05/26 14:59:23;;;;;;;3.25;1.75;;;15.20;99.90;;;;;;10418318;28;20045;-60
2021/05/26 15:04:25;;;;;;;2.20;1.48;;;15.10;99.90;;;;;;10417504;28;20477;-60
2021/05/26 15:09:27;;;;;;;3.15;1.85;;;15.00;99.90;;;;;;10417696;28;20055;-60
2021/05/26 15:14:29;;;;;;;1.90;1.48;;;14.70;99.90;;;;;;10417325;28;20080;-61
2021/05/26 15:19:31;;;;;;;2.20;1.50;;;14.50;99.90;;;;;;10417209;28;20046;-59
2021/05/26 15:24:33;;;;;;;2.40;1.65;;;14.60;99.90;;;;;;10417151;28;20045;-60
2021/05/26 15:29:35;;;;;;;6.10;2.38;;;14.60;99.90;;;;;;10416821;28;20050;-61
2021/05/26 15:34:40;;;;;;;2.15;1.38;;;15.00;99.90;;;;;;10416311;28;20432;-61
2021/05/26 15:39:42;;;;;;;5.53;1.95;;;15.20;99.90;;;;;;10416485;28;20053;-60
2021/05/26 15:44:44;;;;;;;3.83;2.00;;;15.10;99.90;;;;;;10416130;28;20045;-60
2021/05/26 15:49:46;;;;;;;4.35;1.77;;;14.60;99.90;;;;;;10416197;28;20056;-60
2021/05/26 15:55:08;;;;;;;5.80;2.45;;;14.50;99.90;;;;;;10415981;28;20045;-59
2021/05/26 16:00:18;;;;;;;4.85;2.35;;;14.20;99.90;;;;;;10415991;28;20037;-61
2021/05/26 16:05:22;;;;;;;5.47;2.70;;;14.30;99.90;;;;;;10414701;28;20041;-61
2021/05/26 16:10:24;;;;;;;3.15;2.45;;;14.20;99.90;;;;;;10415456;28;20049;-61
2021/05/26 16:15:26;;;;;;;9.57;3.38;;;14.00;99.90;;;;;;10415831;28;20038;-60
2021/05/26 16:20:28;;;;;;;3.42;2.40;;;13.80;99.90;;;;;;10415279;28;20381;-60
2021/05/26 16:25:30;;;;;;;5.35;2.38;;;13.80;99.90;;;;;;10415196;28;20046;-59
2021/05/26 16:30:32;;;;;;;4.38;3.00;;;13.60;99.90;;;;;;10415852;28;20042;-61
2021/05/26 16:35:35;;;;;;;3.53;2.33;;;13.70;99.90;;;;;;10415156;28;20045;-59
2021/05/26 16:40:37;;;;;;;4.80;2.17;;;13.50;99.90;;;;;;10415131;28;20041;-60
2021/05/26 16:45:40;;;;;;;4.13;2.63;;;13.30;99.90;;;;;;10415537;28;20054;-60
2021/05/26 16:50:42;;;;;;;4.70;2.42;;;13.20;99.90;;;;;;10415436;28;20149;-59
2021/05/26 16:55:44;;;;;;;3.33;2.85;;;13.10;99.90;;;;;;10414229;28;20041;-59
2021/05/26 17:00:46;;;;;;;5.82;3.35;;;13.10;99.90;;;;;;10397653;28;20042;-61
2021/05/26 17:05:48;;;;;;;3.72;2.80;;;12.90;99.90;;;;;;10414757;28;20045;-61
2021/05/26 17:10:51;;;;;;;7.10;3.50;;;12.90;99.90;;;;;;10422333;28;20080;-60
2021/05/26 17:15:53;;;;;;;5.28;3.25;;;12.70;99.90;;;;;;10421831;28;20482;-60
2021/05/26 17:20:54;;;;;;;8.10;4.00;;;12.60;99.90;;;;;;10422074;28;20054;-60
2021/05/26 17:25:56;;;;;;;7.15;4.13;;;12.50;99.90;;;;;;10420250;28;20498;-60
2021/05/26 17:31:00;;;;;;;5.13;3.55;;;12.30;99.90;;;;;;10421305;28;20478;-60
2021/05/26 17:36:03;;;;;;;8.07;4.35;;;12.30;99.90;;;;;;10420880;28;20561;-61
2021/05/26 17:41:05;;;;;;;5.70;5.03;;;12.30;99.90;;;;;;10420826;28;20048;-60
2021/05/26 17:46:07;;;;;;;5.20;4.70;;;12.20;99.90;;;;;;10419177;28;20370;-60
2021/05/26 17:51:09;;;;;;;8.95;5.45;;;12.20;99.90;;;;;;10420450;28;20041;-60
2021/05/26 17:56:13;;;;;;;6.07;5.47;;;12.10;99.90;;;;;;10420472;28;20049;-60
2021/05/26 18:01:17;;;;;;;6.65;4.97;;;12.10;99.90;;;;;;10420346;28;20064;-60
2021/05/26 18:06:19;;;;;;;5.90;4.63;;;12.00;99.90;;;;;;10419967;28;20045;-60
2021/05/26 18:11:22;;;;;;;8.55;5.50;;;11.90;99.90;;;;;;10419831;28;20496;-60
2021/05/26 18:16:25;;;;;;;7.55;5.72;;;11.80;99.90;;;;;;10419305;28;20092;-59
2021/05/26 18:21:27;;;;;;;9.50;5.15;;;11.90;99.90;;;;;;10419944;28;20041;-60
2021/05/26 18:26:29;;;;;;;8.25;5.50;;;11.90;99.90;;;;;;10419044;28;20500;-60
2021/05/26 18:31:32;;;;;;;10.07;5.68;;;11.80;99.90;;;;;;10419809;28;20038;-60
2021/05/26 18:36:34;;;;;;;6.00;5.15;;;11.80;99.90;;;;;;10401190;28;20052;-60
2021/05/26 18:41:36;;;;;;;8.85;5.05;;;11.80;99.90;;;;;;10418682;28;20045;-60
2021/05/26 18:46:39;;;;;;;7.80;5.47;;;11.70;99.90;;;;;;10418600;28;20051;-60
2021/05/26 18:51:42;;;;;;;7.72;6.65;;;11.70;99.90;;;;;;10418723;28;20060;-61
2021/05/26 18:56:44;;;;;;;6.72;6.10;;;11.60;99.90;;;;;;10418718;28;20124;-61
2021/05/26 19:01:48;;;;;;;15.93;7.68;;;11.60;99.90;;;;;;10418435;28;20052;-61
2021/05/26 19:06:50;;;;;;;7.90;6.45;;;11.70;99.90;;;;;;10417821;28;20048;-61
2021/05/26 19:11:52;;;;;;;8.27;5.95;;;11.60;99.90;;;;;;10418179;28;20049;-60
2021/05/26 19:16:54;;;;;;;8.07;6.25;;;11.50;99.90;;;;;;10415858;28;20428;-61
2021/05/26 19:21:57;;;;;;;7.85;5.00;;;11.60;99.90;;;;;;10415981;28;20056;-61
2021/05/26 19:26:59;;;;;;;6.55;5.35;;;11.50;99.90;;;;;;10416951;28;20051;-60
2021/05/26 19:32:01;;;;;;;5.45;4.88;;;11.50;99.90;;;;;;10416460;28;20056;-60
2021/05/26 19:37:08;;;;;;;6.05;4.53;;;11.60;99.90;;;;;;10431331;28;20041;-61
2021/05/26 19:42:10;;;;;;;4.30;3.80;;;11.50;99.90;;;;;;10417043;28;20072;-62
2021/05/26 19:47:12;;;;;;;5.38;4.88;;;11.50;99.90;;;;;;10416206;28;20444;-61
2021/05/26 19:52:14;;;;;;;7.97;6.65;;;11.60;99.90;;;;;;10417619;28;20051;-61
2021/05/26 19:57:16;;;;;;;7.45;6.43;;;11.50;99.90;;;;;;10416386;28;20045;-59
2021/05/26 20:02:18;;;;;;;8.50;6.60;;;11.50;99.90;;;;;;10415788;28;20121;-60
2021/05/26 20:07:20;;;;;;;10.73;7.13;;;11.50;99.90;;;;;;10415797;28;20464;-60
2021/05/26 20:12:25;;;;;;;9.25;6.90;;;11.50;99.90;;;;;;10416173;28;20132;-61
2021/05/26 20:17:27;;;;;;;12.27;8.48;;;11.50;99.90;;;;;;10416120;28;20041;-61
2021/05/26 20:22:29;;;;;;;10.15;9.15;;;11.50;99.90;;;;;;10415177;28;20038;-61
2021/05/26 20:27:31;;;;;;;12.75;9.05;;;11.50;99.90;;;;;;10414634;28;20385;-61
2021/05/26 20:32:35;;;;;;;8.73;7.88;;;11.40;99.90;;;;;;10415576;28;20103;-61
2021/05/26 20:37:37;;;;;;;9.20;8.30;;;11.30;99.90;;;;;;10415034;28;20055;-61
2021/05/26 20:42:40;;;;;;;15.43;10.13;;;11.30;99.90;;;;;;10419650;28;20049;-60
2021/05/26 20:47:43;;;;;;;15.32;8.70;;;11.40;99.90;;;;;;10422829;28;20450;-61
2021/05/26 20:52:51;;;;;;;11.13;7.82;;;11.40;99.90;;;;;;10422959;28;20049;-62
2021/05/26 20:57:53;;;;;;;11.02;9.32;;;11.40;99.90;;;;;;10423266;28;20037;-61
2021/05/26 21:02:56;;;;;;;13.48;8.32;;;11.40;99.90;;;;;;10422499;28;20049;-60
2021/05/26 21:08:00;;;;;;;11.23;8.63;;;11.30;99.90;;;;;;10422291;28;20045;-60
2021/05/26 21:13:02;;;;;;;13.98;7.95;;;11.30;99.90;;;;;;10421954;28;20099;-60
2021/05/26 21:18:04;;;;;;;12.93;8.13;;;11.30;99.90;;;;;;10422105;28;20041;-60
2021/05/26 21:23:06;;;;;;;12.85;7.45;;;11.20;99.90;;;;;;10421537;28;20371;-61
2021/05/26 21:28:09;;;;;;;10.90;6.55;;;11.20;99.90;;;;;;10421794;28;20052;-62
2021/05/26 21:33:11;;;;;;;11.48;7.47;;;11.20;99.90;;;;;;10421515;28;20068;-62
2021/05/26 21:38:13;;;;;;;11.63;6.00;;;11.20;99.90;;;;;;10420871;28;20389;-61
2021/05/26 21:43:16;;;;;;;14.38;6.95;;;11.30;99.90;;;;;;10420782;28;20072;-60
2021/05/26 21:48:18;;;;;;;12.32;6.63;;;11.20;99.90;;;;;;10420292;28;20051;-60
2021/05/26 21:53:20;;;;;;;9.35;6.70;;;11.20;99.90;;;;;;10419988;28;20060;-61
2021/05/26 21:58:23;;;;;;;11.10;7.05;;;11.20;99.90;;;;;;10420274;28;20068;-61
2021/05/26 22:03:25;;;;;;;9.35;6.93;;;11.20;99.90;;;;;;10420162;28;20490;-60
2021/05/26 22:08:27;;;;;;;13.05;7.68;;;11.20;99.90;;;;;;10420519;28;20045;-60
2021/05/26 22:13:30;;;;;;;12.68;7.22;;;11.20;99.90;;;;;;10419789;28;20041;-62
2021/05/26 22:18:32;;;;;;;12.40;7.25;;;11.20;99.90;;;;;;10419815;28;20377;-61
2021/05/26 22:23:34;;;;;;;11.70;8.63;;;11.20;99.90;;;;;;10419230;28;20500;-60
2021/05/26 22:28:36;;;;;;;11.98;7.80;;;11.20;99.90;;;;;;10419169;28;20362;-60
2021/05/26 22:33:38;;;;;;;13.50;7.25;;;11.20;99.90;;;;;;10419352;28;20048;-60
2021/05/26 22:38:40;;;;;;;12.93;7.47;;;11.10;99.90;;;;;;10418629;28;20045;-60
2021/05/26 22:43:42;;;;;;;20.77;8.35;;;11.10;99.90;;;;;;10418735;28;20051;-60
2021/05/26 22:48:44;;;;;;;10.32;7.20;;;11.10;99.90;;;;;;10419068;28;20056;-61
2021/05/26 22:53:46;;;;;;;10.85;7.50;;;11.10;99.90;;;;;;10418493;28;20041;-61
2021/05/26 22:58:48;;;;;;;18.50;8.10;;;11.10;99.90;;;;;;10418172;28;20041;-61
2021/05/26 23:03:50;;;;;;;24.25;8.18;;;11.10;99.90;;;;;;10417031;28;20037;-61
2021/05/26 23:08:52;;;;;;;13.43;7.88;;;11.20;99.90;;;;;;10418178;28;20051;-60
2021/05/26 23:13:55;;;;;;;17.80;7.95;;;11.10;99.90;;;;;;10417258;28;20037;-60
2021/05/26 23:18:57;;;;;;;16.63;8.18;;;11.10;99.90;;;;;;10417516;28;20045;-60
2021/05/26 23:23:59;;;;;;;13.85;8.43;;;11.20;99.90;;;;;;10417026;28;20077;-61
2021/05/26 23:29:02;;;;;;;17.15;9.88;;;11.10;99.90;;;;;;10417431;28;20052;-60
2021/05/26 23:34:04;;;;;;;19.05;10.32;;;11.20;99.90;;;;;;10416609;28;20041;-61
2021/05/26 23:39:06;;;;;;;19.23;11.00;;;11.20;99.90;;;;;;10416518;28;20053;-60
2021/05/26 23:44:08;;;;;;;19.33;9.48;;;11.20;99.90;;;;;;10416438;28;20042;-60
2021/05/26 23:49:10;;;;;;;20.80;10.43;;;11.20;99.90;;;;;;10416645;28;20053;-60
2021/05/26 23:54:12;;;;;;;17.20;10.57;;;11.20;99.90;;;;;;10415826;28;20053;-61
2021/05/26 23:59:14;;;;;;;17.83;9.73;;;11.20;99.90;;;;;;10416191;28;20048;-60
